map of MKL home
MKL - Airport
Location
City:  Jackson, Tennessee, United States
Name:McKellar-Sipes Regional
ICAO:KMKL
IATA:MKL
FAA LID:MKL

Details
Type:Airport (Part 139 Class IV)
Use:Public/Civil
Latitude:3536'00"N (35.599889)
Longitude:8854'56"W (-88.915610)
Datum:WGS 1984
Elevation:433 ft (132 m)
Variation:2.24W (WMM2015 magnetic declination)
-0.09 annual change
Runways:2
Longest:6006 × 150 ft (1831 × 45.5 m), paved

Time
Time Zone:UTC-6 (DST-5)
Local Time:

Weather
METAR:KMKL 200353Z AUTO 00000KT 6SM BR CLR 22/22 A2999 RMK AO2 SLP152 T02220217
TAF:KMKL 192320Z 2000/2024 00000KT P6SM SKC
FM201500 19006KT P6SM SCT050

Related Locations
Nearby:
Farthest:YAUG: 11078 mi / 17829 km
Augusta [Augusta Airport], WA, AU

Find:

   beyond  
but within

Other Information
Maps:
Delays:
NOTAMs:
Links:
Sources:

  
  • flag of United States
  • flag of Tennessee
  

Airport Diagram

Airport diagram for MKL

Airport diagram PDF

Sectional Chart

Flight Planning
at skyvector.com

Satellite Image

Google Maps Satellite view

 

Copyright © 2004-2018 Karl L. Swartz. All rights reserved.
The Great Circle Mapper name and logo are trademarks of the Great Circle Mapper.
All other trademarks mentioned herein belong to their respective owners.
Please see credits for attibutions and further copyright information.

  Follow gcmap on Facebook Follow gcmap on Twitter Follow gcmap on Google+ GCmap on LinkedIn

hCard Microformat

Geo Microformat